Temp: 17.3°C   Baro: 1010.5mb
  Wind: 6.0mph   Dir: NW (311°)
  Rain: 0.8mm (0.0mm/hr)
  Solar: 76W/m2  Hum: 91%
 
Bath Spa Weather Station Historical Data
Daily Summary for November 12, 2019 Units:  Metric    English   Both
Daily Weekly Monthly Yearly Custom
  High: Low: Average:
Temperature: 8.9 °C 3.3 °C 6.2 °C
Dew Point: 5.7 °C 1.3 °C 3.6 °C
Humidity: 89% 68.2% 83%
Wind Speed: 26.9km/h 0km/h 8.5km/h
Wind Gust: 54.7km/h - -
Wind- - WNW
Pressure: 1002.6 hPa 997.9 hPa -
Precipitation: 0 mm    
Historical Graphs
 
 
Tabular Data for November 12, 2019
Time Temperature Dew Point Pressure Wind Wind Speed Wind Gust Humidity Rainfall Rate (Hourly) solar
00:04 4.6 °C 2.5 °C 1001.9 hPa NW 0.5 km/h 1.6 km/h 86% 0 mm 0 W/m2
00:09 4.5 °C 2.4 °C 1001.9 hPa NW 0.6 km/h 3.2 km/h 86% 0 mm 0 W/m2
00:14 4.6 °C 2.4 °C 1001.9 hPa NW 2.4 km/h 6.4 km/h 86% 0 mm 0 W/m2
00:19 4.7 °C 2.6 °C 1001.9 hPa NW 2.1 km/h 6.4 km/h 86% 0 mm 0 W/m2
00:24 4.7 °C 2.7 °C 1001.9 hPa NW 1.8 km/h 6.4 km/h 86% 0 mm 0 W/m2
00:29 4.7 °C 2.6 °C 1001.9 hPa NW 1.3 km/h 4.8 km/h 86% 0 mm 0 W/m2
00:34 4.7 °C 2.6 °C 1001.9 hPa NW 0.8 km/h 4.8 km/h 86% 0 mm 0 W/m2
00:39 4.6 °C 2.5 °C 1001.9 hPa NW 0.5 km/h 3.2 km/h 86% 0 mm 0 W/m2
00:44 4.6 °C 2.5 °C 1001.9 hPa NW 0.8 km/h 3.2 km/h 86% 0 mm 0 W/m2
00:49 4.5 °C 2.4 °C 1001.9 hPa NW 2.1 km/h 4.8 km/h 86% 0 mm 0 W/m2
00:54 4.4 °C 2.3 °C 1001.9 hPa NW 0.5 km/h 4.8 km/h 86% 0 mm 0 W/m2
00:59 4.4 °C 2.3 °C 1001.9 hPa NW 0.8 km/h 3.2 km/h 86% 0 mm 0 W/m2
01:04 4.3 °C 2.3 °C 1001.9 hPa Calm   3.2 km/h 86% 0 mm 0 W/m2
01:09 4.3 °C 2.2 °C 1001.9 hPa Calm   1.6 km/h 86% 0 mm 0 W/m2
01:14 4.2 °C 2.1 °C 1001.9 hPa Calm     86% 0 mm 0 W/m2
01:19 3.9 °C 1.8 °C 1001.9 hPa Calm   1.6 km/h 86% 0 mm 0 W/m2
01:24 3.7 °C 1.6 °C 1001.9 hPa NW 1.3 km/h 3.2 km/h 86.2% 0 mm 0 W/m2
01:29 3.7 °C 1.7 °C 1001.9 hPa NW 1.8 km/h 4.8 km/h 87% 0 mm 0 W/m2
01:34 3.7 °C 1.7 °C 1001.9 hPa NW 2.3 km/h 4.8 km/h 87% 0 mm 0 W/m2
01:39 3.8 °C 1.8 °C 1001.9 hPa NW 1.3 km/h 4.8 km/h 87% 0 mm 0 W/m2
01:44 3.7 °C 1.7 °C 1001.9 hPa NW 1.8 km/h 3.2 km/h 87% 0 mm 0 W/m2
01:49 3.7 °C 1.8 °C 1001.9 hPa NW 2.9 km/h 4.8 km/h 87.4% 0 mm 0 W/m2
01:54 3.7 °C 1.8 °C 1001.9 hPa NW 3.2 km/h 6.4 km/h 87.7% 0 mm 0 W/m2
01:59 3.7 °C 1.9 °C 1001.9 hPa NW 3.1 km/h 6.4 km/h 88% 0 mm 0 W/m2
02:04 3.7 °C 1.8 °C 1001.6 hPa NW 2.3 km/h 6.4 km/h 88% 0 mm 0 W/m2
02:09 3.4 °C 1.7 °C 1001.6 hPa NW 4 km/h 6.4 km/h 88% 0 mm 0 W/m2
02:14 3.4 °C 1.6 °C 1001.6 hPa NW 3.4 km/h 6.4 km/h 88% 0 mm 0 W/m2
02:19 3.4 °C 1.6 °C 1001.6 hPa NW 3.7 km/h 6.4 km/h 88% 0 mm 0 W/m2
02:24 3.3 °C 1.5 °C 1001.6 hPa NW 2.6 km/h 6.4 km/h 88% 0 mm 0 W/m2
02:29 3.3 °C 1.5 °C 1001.6 hPa NW 4.2 km/h 8 km/h 88% 0 mm 0 W/m2
02:34 3.3 °C 1.5 °C 1001.6 hPa NW 5 km/h 8 km/h 88% 0 mm 0 W/m2
02:39 3.3 °C 1.6 °C 1001.2 hPa NW 4 km/h 8 km/h 88% 0 mm 0 W/m2
02:44 3.3 °C 1.6 °C 1001.6 hPa NW 4.2 km/h 8 km/h 88% 0 mm 0 W/m2
02:49 3.3 °C 1.5 °C 1001.6 hPa NW 4.5 km/h 9.7 km/h 88% 0 mm 0 W/m2
02:54 3.3 °C 1.6 °C 1001.6 hPa NW 4.2 km/h 9.7 km/h 88% 0 mm 0 W/m2
02:59 3.5 °C 1.7 °C 1001.2 hPa WNW 5.8 km/h 14.5 km/h 88% 0 mm 0 W/m2
03:04 3.7 °C 2.1 °C 1001.2 hPa WNW 5.5 km/h 14.5 km/h 89% 0 mm 0 W/m2
03:09 3.7 °C 1.9 °C 1001.2 hPa WNW 5 km/h 9.7 km/h 88% 0 mm 0 W/m2
03:14 3.8 °C 2 °C 1001.2 hPa WNW 5.1 km/h 11.3 km/h 88% 0 mm 0 W/m2
03:19 3.8 °C 2 °C 1001.2 hPa WNW 4.8 km/h 9.7 km/h 88% 0 mm 0 W/m2
03:24 3.8 °C 2 °C 1001.2 hPa WNW 4.5 km/h 8 km/h 88% 0 mm 0 W/m2
03:29 3.9 °C 2.1 °C 1001.2 hPa WNW 5.1 km/h 11.3 km/h 88% 0 mm 0 W/m2
03:34 4.1 °C 2.2 °C 1001.2 hPa WNW 6 km/h 11.3 km/h 88% 0 mm 0 W/m2
03:39 4.2 °C 2.2 °C 1001.2 hPa WNW 5.1 km/h 9.7 km/h 87% 0 mm 0 W/m2
03:44 4.2 °C 2.2 °C 1001.2 hPa WNW 3.2 km/h 12.9 km/h 87% 0 mm 0 W/m2
03:49 4.2 °C 2.2 °C 1001.2 hPa WNW 3.1 km/h 12.9 km/h 87% 0 mm 0 W/m2
03:54 4.2 °C 2.1 °C 1001.2 hPa WNW 3.4 km/h 8 km/h 86.4% 0 mm 0 W/m2
03:59 4.1 °C 1.9 °C 1001.2 hPa WNW 2.3 km/h 6.4 km/h 86% 0 mm 0 W/m2
04:04 3.9 °C 1.8 °C 1001.2 hPa WNW 1.9 km/h 4.8 km/h 86% 0 mm 0 W/m2
04:09 3.9 °C 1.8 °C 1001.2 hPa WNW 2.4 km/h 4.8 km/h 86% 0 mm 0 W/m2
04:14 3.9 °C 1.8 °C 1001.2 hPa WNW 2.4 km/h 6.4 km/h 86% 0 mm 0 W/m2
04:19 3.9 °C 1.8 °C 1001.2 hPa WNW 3.2 km/h 6.4 km/h 86% 0 mm 0 W/m2
04:24 3.9 °C 1.8 °C 1001.2 hPa WNW 1.8 km/h 4.8 km/h 86% 0 mm 0 W/m2
04:29 3.9 °C 1.8 °C 1001.2 hPa WNW 1.1 km/h 4.8 km/h 86% 0 mm 0 W/m2
04:34 3.8 °C 1.7 °C 1001.2 hPa WNW 0.6 km/h 3.2 km/h 86% 0 mm 0 W/m2
04:39 3.7 °C 1.6 °C 1001.2 hPa WNW 3.7 km/h 6.4 km/h 86% 0 mm 0 W/m2
04:44 3.6 °C 1.4 °C 1001.2 hPa WNW 2.9 km/h 6.4 km/h 86% 0 mm 0 W/m2
04:49 3.6 °C 1.4 °C 1001.2 hPa WNW 3.4 km/h 9.7 km/h 86% 0 mm 0 W/m2
04:54 3.5 °C 1.4 °C 1001.2 hPa WNW 2.6 km/h 9.7 km/h 86% 0 mm 0 W/m2
04:59 3.4 °C 1.3 °C 1001.2 hPa WNW 4 km/h 8 km/h 86% 0 mm 0 W/m2
05:04 3.4 °C 1.3 °C 1001.2 hPa WNW 3.9 km/h 8 km/h 86.3% 0 mm 0 W/m2
05:09 3.4 °C 1.4 °C 1001.2 hPa WNW 3.9 km/h 8 km/h 87% 0 mm 0 W/m2
05:14 3.4 °C 1.4 °C 1001.2 hPa WNW 2.9 km/h 6.4 km/h 87% 0 mm 0 W/m2
05:19 3.5 °C 1.5 °C 1001.2 hPa WNW 3.5 km/h 6.4 km/h 87% 0 mm 0 W/m2
05:24 3.6 °C 1.6 °C 1001.2 hPa WNW 4.8 km/h 8 km/h 87% 0 mm 0 W/m2
05:29 3.6 °C 1.6 °C 1001.2 hPa WNW 3.9 km/h 8 km/h 87% 0 mm 0 W/m2
05:34 3.6 °C 1.6 °C 1001.2 hPa WNW 4.7 km/h 9.7 km/h 87% 0 mm 0 W/m2
05:39 3.7 °C 1.7 °C 1001.2 hPa WNW 1.9 km/h 8 km/h 87% 0 mm 0 W/m2
05:44 3.7 °C 1.7 °C 1001.2 hPa WNW 1.9 km/h 4.8 km/h 87% 0 mm 0 W/m2
05:49 3.6 °C 1.6 °C 1001.2 hPa WNW 1.3 km/h 4.8 km/h 87% 0 mm 0 W/m2
05:54 3.6 °C 1.6 °C 1000.9 hPa WNW 3.5 km/h 6.4 km/h 87% 0 mm 0 W/m2
05:59 3.6 °C 1.6 °C 1000.9 hPa WNW 3.7 km/h 8 km/h 87% 0 mm 0 W/m2
06:04 3.6 °C 1.6 °C 1000.9 hPa WNW 4.8 km/h 9.7 km/h 86.4% 0 mm 0 W/m2
06:09 3.7 °C 1.6 °C 1000.6 hPa WNW 4.3 km/h 11.3 km/h 86% 0 mm 0 W/m2
06:14 3.7 °C 1.7 °C 1000.6 hPa WNW 4.5 km/h 8 km/h 86% 0 mm 0 W/m2
06:19 3.7 °C 1.7 °C 1000.6 hPa WNW 3.7 km/h 8 km/h 86% 0 mm 0 W/m2
06:24 3.7 °C 1.6 °C 1000.6 hPa WNW 4.2 km/h 8 km/h 86% 0 mm 0 W/m2
06:29 3.7 °C 1.6 °C 1000.6 hPa WNW 4.5 km/h 11.3 km/h 86% 0 mm 0 W/m2
06:34 3.7 °C 1.6 °C 1000.6 hPa WNW 6.1 km/h 11.3 km/h 86% 0 mm 0 W/m2
06:39 3.6 °C 1.5 °C 1000.6 hPa WNW 5 km/h 11.3 km/h 86% 0 mm 0 W/m2
06:44 3.6 °C 1.5 °C 1000.6 hPa WNW 6.3 km/h 9.7 km/h 86% 0 mm 0 W/m2
06:49 3.6 °C 1.5 °C 1000.6 hPa WNW 6 km/h 11.3 km/h 86% 0 mm 0 W/m2
06:54 3.6 °C 1.5 °C 1000.6 hPa WNW 6.3 km/h 14.5 km/h 86% 0 mm 0 W/m2
06:59 3.6 °C 1.5 °C 1000.2 hPa WNW 3.9 km/h 9.7 km/h 86% 0 mm 0 W/m2
07:04 3.7 °C 1.6 °C 1000.2 hPa WNW 6.9 km/h 14.5 km/h 86.2% 0 mm 0 W/m2
07:09 3.9 °C 1.8 °C 1000.2 hPa WNW 4.5 km/h 12.9 km/h 86.3% 0 mm 0 W/m2
07:14 3.9 °C 1.8 °C 1000.2 hPa WNW 3.2 km/h 14.5 km/h 86% 0 mm 0 W/m2
07:19 3.9 °C 1.8 °C 1000.2 hPa WNW 6.6 km/h 16.1 km/h 86% 0 mm 0 W/m2
07:24 3.9 °C 1.8 °C 1000.2 hPa West 5.3 km/h 11.3 km/h 86% 0 mm 5 W/m2
07:29 3.9 °C 1.8 °C 1000.2 hPa WNW 3.4 km/h 11.3 km/h 86% 0 mm 7 W/m2
07:34 3.9 °C 1.8 °C 1000.6 hPa WNW 5.3 km/h 11.3 km/h 85.7% 0 mm 11 W/m2
07:39 4.1 °C 1.9 °C 1000.6 hPa WNW 5.6 km/h 11.3 km/h 86% 0 mm 12 W/m2
07:44 4.2 °C 1.9 °C 1000.2 hPa WNW 4.5 km/h 11.3 km/h 85.6% 0 mm 18 W/m2
07:49 4.2 °C 1.9 °C 1000.2 hPa WNW 4.5 km/h 9.7 km/h 85% 0 mm 23 W/m2
07:54 4.3 °C 2.1 °C 1000.2 hPa WNW 5.8 km/h 14.5 km/h 85% 0 mm 23 W/m2
07:59 4.5 °C 2.2 °C 1000.2 hPa WNW 3.5 km/h 11.3 km/h 85% 0 mm 23 W/m2
08:04 4.7 °C 2.4 °C 1000.2 hPa West 5.6 km/h 12.9 km/h 85% 0 mm 25 W/m2
08:09 4.8 °C 2.3 °C 1000.2 hPa WNW 4.2 km/h 11.3 km/h 84.1% 0 mm 26 W/m2
08:14 5.1 °C 2.5 °C 1000.2 hPa WNW 5.6 km/h 12.9 km/h 83.3% 0 mm 28 W/m2
08:19 5.2 °C 2.4 °C 1000.2 hPa West 3.7 km/h 12.9 km/h 82.5% 0 mm 30 W/m2
08:24 5.3 °C 2.4 °C 1000.2 hPa West 7.2 km/h 16.1 km/h 81.7% 0 mm 32 W/m2
08:29 5.5 °C 2.5 °C 1000.2 hPa West 6.6 km/h 17.7 km/h 81% 0 mm 35 W/m2
08:34 5.6 °C 2.6 °C 1000.2 hPa West 7.4 km/h 16.1 km/h 81% 0 mm 37 W/m2
08:39 5.7 °C 2.7 °C 1000.2 hPa WNW 7.1 km/h 17.7 km/h 80.9% 0 mm 39 W/m2
08:44 5.8 °C 2.6 °C 1000.2 hPa WNW 7.9 km/h 17.7 km/h 80% 0 mm 42 W/m2
08:49 5.9 °C 2.7 °C 1000.2 hPa West 8.5 km/h 17.7 km/h 80% 0 mm 46 W/m2
08:54 6.1 °C 2.8 °C 1000.2 hPa WNW 9 km/h 19.3 km/h 80% 0 mm 53 W/m2
08:59 6.2 °C 2.8 °C 1000.2 hPa WNW 11.3 km/h 17.7 km/h 79% 0 mm 58 W/m2
09:04 6.3 °C 2.8 °C 1000.2 hPa WNW 11.1 km/h 20.9 km/h 78.9% 0 mm 67 W/m2
09:09 6.4 °C 2.8 °C 999.9 hPa West 12.6 km/h 27.4 km/h 78% 0 mm 76 W/m2
09:14 6.6 °C 3 °C 999.9 hPa WNW 8.5 km/h 17.7 km/h 78% 0 mm 84 W/m2
09:19 6.6 °C 3 °C 999.9 hPa West 14 km/h 24.1 km/h 78% 0 mm 97 W/m2
09:24 6.7 °C 3.1 °C 999.9 hPa WNW 14.5 km/h 24.1 km/h 77.1% 0 mm 105 W/m2
09:29 6.8 °C 3.1 °C 999.9 hPa WNW 14.2 km/h 29 km/h 76.9% 0 mm 118 W/m2
09:34 7.1 °C 3.1 °C 999.9 hPa West 14.3 km/h 25.7 km/h 75.9% 0 mm 127 W/m2
09:39 7.1 °C 3 °C 999.9 hPa WNW 13.8 km/h 24.1 km/h 75% 0 mm 139 W/m2
09:44 7.2 °C 3.1 °C 999.9 hPa WNW 13 km/h 25.7 km/h 74.8% 0 mm 146 W/m2
09:49 7.3 °C 2.9 °C 999.9 hPa WNW 22 km/h 41.8 km/h 73.8% 0 mm 158 W/m2
09:54 7.3 °C 3 °C 999.9 hPa WNW 14.6 km/h 30.6 km/h 73.9% 0 mm 176 W/m2
09:59 7.4 °C 3.1 °C 999.5 hPa WNW 15.3 km/h 30.6 km/h 74% 0 mm 213 W/m2
10:04 7.4 °C 3.1 °C 999.5 hPa WNW 15.6 km/h 27.4 km/h 73.8% 0 mm 221 W/m2
10:09 7.6 °C 3.1 °C 999.5 hPa West 13.8 km/h 27.4 km/h 73.5% 0 mm 248 W/m2
10:14 7.7 °C 3.3 °C 999.5 hPa WNW 11.4 km/h 29 km/h 74% 0 mm 250 W/m2
10:19 7.7 °C 3.3 °C 999.5 hPa WNW 13.7 km/h 32.2 km/h 73.6% 0 mm 227 W/m2
10:24 7.8 °C 3.2 °C 999.2 hPa WNW 20.3 km/h 37 km/h 72.5% 0 mm 302 W/m2
10:29 7.9 °C 3.2 °C 999.2 hPa WNW 22.2 km/h 33.8 km/h 72% 0 mm 320 W/m2
10:34 8.1 °C 3.3 °C 999.2 hPa WNW 20.1 km/h 38.6 km/h 71.6% 0 mm 315 W/m2
10:39 8.2 °C 3.4 °C 999.2 hPa WNW 20.3 km/h 35.4 km/h 71.8% 0 mm 299 W/m2
10:44 8.3 °C 3.4 °C 999.2 hPa WNW 24.3 km/h 40.2 km/h 71.3% 0 mm 306 W/m2
10:49 8.3 °C 3.2 °C 999.2 hPa WNW 22.4 km/h 40.2 km/h 70.3% 0 mm 332 W/m2
10:54 8.3 °C 3.1 °C 999.2 hPa WNW 20.3 km/h 35.4 km/h 70% 0 mm 330 W/m2
10:59 8.4 °C 3.2 °C 999.2 hPa WNW 20.4 km/h 38.6 km/h 69.8% 0 mm 455 W/m2
11:04 8.6 °C 3.2 °C 999.2 hPa WNW 21.9 km/h 43.5 km/h 69% 0 mm 455 W/m2
11:09 8.3 °C 3.2 °C 999.2 hPa WNW 22.4 km/h 41.8 km/h 70% 0 mm 371 W/m2
11:14 8.6 °C 3.3 °C 998.9 hPa WNW 24.3 km/h 45.1 km/h 69.7% 0 mm 383 W/m2
11:19 8.7 °C 3.3 °C 999.2 hPa WNW 25.1 km/h 45.1 km/h 69% 0 mm 383 W/m2
11:24 8.7 °C 3.3 °C 998.9 hPa WNW 23.2 km/h 54.7 km/h 69% 0 mm 316 W/m2
11:29 8.8 °C 3.4 °C 998.9 hPa WNW 20 km/h 40.2 km/h 69% 0 mm 483 W/m2
11:34 8.9 °C 3.3 °C 998.9 hPa WNW 22.7 km/h 40.2 km/h 68.3% 0 mm 411 W/m2
11:39 8.8 °C 3.2 °C 998.5 hPa WNW 18.3 km/h 40.2 km/h 68.2% 0 mm 241 W/m2
11:44 8.8 °C 3.3 °C 998.5 hPa West 26.9 km/h 43.5 km/h 68.5% 0 mm 401 W/m2
11:49 8.8 °C 3.2 °C 998.5 hPa West 23 km/h 49.9 km/h 68.3% 0 mm 223 W/m2
11:54 8.7 °C 3.2 °C 998.5 hPa WNW 24.9 km/h 40.2 km/h 68.2% 0 mm 165 W/m2
11:59 8.7 °C 3.3 °C 998.5 hPa WNW 18.8 km/h 38.6 km/h 69% 0 mm 123 W/m2
12:04 8.6 °C 3.3 °C 998.5 hPa WNW 23.7 km/h 38.6 km/h 69.4% 0 mm 91 W/m2
12:09 8.4 °C 3.3 °C 998.5 hPa WNW 21.1 km/h 35.4 km/h 70.4% 0 mm 72 W/m2
12:14 8.3 °C 3.4 °C 998.5 hPa WNW 17.5 km/h 30.6 km/h 71% 0 mm 81 W/m2
12:19 8.3 °C 3.5 °C 998.5 hPa WNW 18.3 km/h 33.8 km/h 71.9% 0 mm 65 W/m2
12:24 8.2 °C 3.5 °C 998.5 hPa West 19.3 km/h 43.5 km/h 72% 0 mm 60 W/m2
12:29 8.2 °C 3.6 °C 998.5 hPa WNW 23.8 km/h 45.1 km/h 72.4% 0 mm 60 W/m2
12:34 8.1 °C 3.6 °C 998.2 hPa WNW 15.4 km/h 45.1 km/h 73.6% 0 mm 72 W/m2
12:39 7.8 °C 3.7 °C 998.2 hPa NW 20.9 km/h 35.4 km/h 75.2% 0 mm 54 W/m2
12:44 7.8 °C 3.8 °C 998.2 hPa WNW 16.4 km/h 35.4 km/h 76% 0 mm 81 W/m2
12:49 7.8 °C 3.9 °C 998.2 hPa WNW 19.3 km/h 38.6 km/h 76.9% 0 mm 144 W/m2
12:54 7.8 °C 4.1 °C 998.2 hPa WNW 17.9 km/h 33.8 km/h 77% 0 mm 174 W/m2
12:59 7.9 °C 4.1 °C 998.2 hPa WNW 19 km/h 30.6 km/h 77% 0 mm 146 W/m2
13:04 7.9 °C 4.2 °C 998.2 hPa WNW 13.8 km/h 30.6 km/h 77% 0 mm 160 W/m2
13:09 8 °C 4.2 °C 998.2 hPa WNW 19.2 km/h 37 km/h 77% 0 mm 153 W/m2
13:14 8 °C 4.2 °C 998.2 hPa West 17.4 km/h 37 km/h 77% 0 mm 171 W/m2
13:19 8.1 °C 4.2 °C 998.2 hPa WNW 14.6 km/h 41.8 km/h 77% 0 mm 139 W/m2
13:24 8 °C 4.2 °C 998.2 hPa WNW 17.1 km/h 41.8 km/h 77% 0 mm 120 W/m2
13:29 8 °C 4.4 °C 997.9 hPa WNW 21.1 km/h 33.8 km/h 77.9% 0 mm 149 W/m2
13:34 8.1 °C 4.4 °C 997.9 hPa WNW 18.8 km/h 33.8 km/h 78% 0 mm 171 W/m2
13:39 8.1 °C 4.5 °C 997.9 hPa WNW 16.9 km/h 30.6 km/h 78% 0 mm 137 W/m2
13:44 8.1 °C 4.5 °C 997.9 hPa NW 16.7 km/h 35.4 km/h 78% 0 mm 137 W/m2
13:49 8.2 °C 4.6 °C 997.9 hPa WNW 23.2 km/h 38.6 km/h 78% 0 mm 174 W/m2
13:54 8.2 °C 4.6 °C 997.9 hPa WNW 19.8 km/h 38.6 km/h 78% 0 mm 174 W/m2
13:59 8.3 °C 4.7 °C 997.9 hPa WNW 17.7 km/h 33.8 km/h 78% 0 mm 151 W/m2
14:04 8.3 °C 4.7 °C 997.9 hPa WNW 22.7 km/h 40.2 km/h 78% 0 mm 93 W/m2
14:09 8.2 °C 4.7 °C 997.9 hPa WNW 18.5 km/h 40.2 km/h 78% 0 mm 88 W/m2
14:14 8.2 °C 4.6 °C 997.9 hPa WNW 18.5 km/h 32.2 km/h 78% 0 mm 58 W/m2
14:19 8.2 °C 4.6 °C 997.9 hPa WNW 15.3 km/h 30.6 km/h 78% 0 mm 65 W/m2
14:24 8.2 °C 4.8 °C 997.9 hPa WNW 17.9 km/h 37 km/h 79% 0 mm 32 W/m2
14:29 8.2 °C 4.8 °C 997.9 hPa WNW 15.3 km/h 37 km/h 79% 0 mm 26 W/m2
14:34 8.2 °C 4.8 °C 997.9 hPa WNW 18.7 km/h 35.4 km/h 79% 0 mm 19 W/m2
14:39 8.2 °C 4.8 °C 997.9 hPa WNW 20.6 km/h 35.4 km/h 79% 0 mm 37 W/m2
14:44 8.2 °C 4.8 °C 997.9 hPa WNW 14.5 km/h 33.8 km/h 79.4% 0 mm 33 W/m2
14:49 8.2 °C 5 °C 997.9 hPa WNW 16.1 km/h 32.2 km/h 80% 0 mm 23 W/m2
14:54 8.2 °C 4.9 °C 998.2 hPa WNW 20.1 km/h 27.4 km/h 80% 0 mm 23 W/m2
14:59 8.2 °C 5 °C 998.2 hPa WNW 14.3 km/h 30.6 km/h 80% 0 mm 23 W/m2
15:04 8.2 °C 5 °C 998.2 hPa WNW 18 km/h 33.8 km/h 80% 0 mm 23 W/m2
15:09 8.2 °C 5 °C 998.2 hPa WNW 12.2 km/h 22.5 km/h 80% 0 mm 30 W/m2
15:14 8.2 °C 5.1 °C 998.2 hPa WNW 15.9 km/h 30.6 km/h 81% 0 mm 39 W/m2
15:19 8.2 °C 5.1 °C 998.5 hPa WNW 10.6 km/h 20.9 km/h 81% 0 mm 33 W/m2
15:24 8.2 °C 5.1 °C 998.5 hPa WNW 10.8 km/h 24.1 km/h 81% 0 mm 33 W/m2
15:29 8.2 °C 5.1 °C 998.5 hPa WNW 11.4 km/h 24.1 km/h 81% 0 mm 30 W/m2
15:34 8.2 °C 5.2 °C 998.5 hPa WNW 9.2 km/h 19.3 km/h 81.6% 0 mm 19 W/m2
15:39 8.2 °C 5.3 °C 998.5 hPa WNW 11.6 km/h 20.9 km/h 82% 0 mm 18 W/m2
15:44 8.2 °C 5.3 °C 998.9 hPa WNW 9.3 km/h 16.1 km/h 82% 0 mm 12 W/m2
15:49 8.2 °C 5.3 °C 998.9 hPa WNW 6.9 km/h 17.7 km/h 82% 0 mm 9 W/m2
15:54 8.2 °C 5.3 °C 998.9 hPa WNW 8.4 km/h 16.1 km/h 82% 0 mm 9 W/m2
15:59 8.2 °C 5.3 °C 999.2 hPa WNW 12.6 km/h 29 km/h 82% 0 mm 11 W/m2
16:04 8.2 °C 5.3 °C 999.2 hPa West 8 km/h 16.1 km/h 82% 0 mm 12 W/m2
16:09 8.2 °C 5.5 °C 999.2 hPa WNW 10.6 km/h 19.3 km/h 83% 0 mm 7 W/m2
16:14 8.2 °C 5.5 °C 999.2 hPa WNW 8.2 km/h 12.9 km/h 83% 0 mm 5 W/m2
16:19 8.2 °C 5.5 °C 999.2 hPa NW 8.7 km/h 17.7 km/h 83% 0 mm 5 W/m2
16:24 8.1 °C 5.4 °C 999.2 hPa WNW 9 km/h 17.7 km/h 83% 0 mm 5 W/m2
16:29 8.1 °C 5.3 °C 999.2 hPa WNW 8.5 km/h 16.1 km/h 83% 0 mm 0 W/m2
16:34 7.9 °C 5.3 °C 999.2 hPa West 7.4 km/h 19.3 km/h 83% 0 mm 0 W/m2
16:39 7.9 °C 5.4 °C 999.2 hPa WNW 8.9 km/h 14.5 km/h 84% 0 mm 0 W/m2
16:44 7.9 °C 5.4 °C 999.2 hPa WNW 7.1 km/h 14.5 km/h 84% 0 mm 0 W/m2
16:49 7.9 °C 5.4 °C 999.5 hPa WNW 5.8 km/h 12.9 km/h 84% 0 mm 0 W/m2
16:54 7.9 °C 5.4 °C 999.5 hPa WNW 6.3 km/h 16.1 km/h 84% 0 mm 0 W/m2
16:59 7.9 °C 5.4 °C 999.5 hPa West 5.8 km/h 12.9 km/h 84% 0 mm 0 W/m2
17:04 7.9 °C 5.4 °C 999.5 hPa WNW 7.1 km/h 14.5 km/h 84% 0 mm 0 W/m2
17:09 7.9 °C 5.6 °C 999.5 hPa WNW 6.6 km/h 14.5 km/h 84.8% 0 mm 0 W/m2
17:14 8 °C 5.6 °C 999.5 hPa WNW 7.6 km/h 14.5 km/h 85% 0 mm 0 W/m2
17:19 8.1 °C 5.7 °C 999.5 hPa West 6.9 km/h 12.9 km/h 85% 0 mm 0 W/m2
17:24 8.1 °C 5.7 °C 999.5 hPa WNW 7.4 km/h 14.5 km/h 85% 0 mm 0 W/m2
17:29 8 °C 5.6 °C 999.9 hPa WNW 8.5 km/h 16.1 km/h 85% 0 mm 0 W/m2
17:34 8 °C 5.6 °C 999.9 hPa WNW 6.1 km/h 16.1 km/h 85% 0 mm 0 W/m2
17:39 7.9 °C 5.6 °C 999.9 hPa WNW 8 km/h 12.9 km/h 85% 0 mm 0 W/m2
17:44 7.9 °C 5.7 °C 999.9 hPa WNW 6.3 km/h 16.1 km/h 85.9% 0 mm 0 W/m2
17:49 7.9 °C 5.7 °C 999.9 hPa WNW 8.9 km/h 17.7 km/h 86% 0 mm 0 W/m2
17:54 7.8 °C 5.6 °C 999.9 hPa WNW 10.1 km/h 16.1 km/h 86% 0 mm 0 W/m2
17:59 7.8 °C 5.6 °C 999.9 hPa WNW 9.2 km/h 17.7 km/h 86% 0 mm 0 W/m2
18:04 7.8 °C 5.6 °C 999.9 hPa WNW 9.2 km/h 17.7 km/h 86% 0 mm 0 W/m2
18:09 7.7 °C 5.5 °C 999.9 hPa WNW 8.4 km/h 14.5 km/h 86% 0 mm 0 W/m2
18:14 7.7 °C 5.5 °C 999.9 hPa WNW 8.5 km/h 14.5 km/h 86% 0 mm 0 W/m2
18:19 7.6 °C 5.5 °C 999.9 hPa WNW 7.7 km/h 17.7 km/h 86.4% 0 mm 0 W/m2
18:24 7.5 °C 5.4 °C 1000.2 hPa West 5.8 km/h 17.7 km/h 86.5% 0 mm 0 W/m2
18:29 7.4 °C 5.4 °C 1000.2 hPa West 4.8 km/h 11.3 km/h 87% 0 mm 0 W/m2
18:34 7.3 °C 5.3 °C 1000.2 hPa West 4.2 km/h 8 km/h 87% 0 mm 0 W/m2
18:39 7.2 °C 5.2 °C 1000.2 hPa West 5.5 km/h 9.7 km/h 87% 0 mm 0 W/m2
18:44 7.1 °C 5.1 °C 1000.2 hPa West 6.9 km/h 11.3 km/h 87% 0 mm 0 W/m2
18:49 7 °C 5.1 °C 1000.2 hPa WNW 6.1 km/h 11.3 km/h 88% 0 mm 0 W/m2
18:54 6.9 °C 5.1 °C 1000.2 hPa WNW 5.8 km/h 11.3 km/h 88% 0 mm 0 W/m2
18:59 6.9 °C 5.1 °C 1000.2 hPa WNW 4.3 km/h 9.7 km/h 88% 0 mm 0 W/m2
19:04 6.8 °C 5 °C 1000.2 hPa West 5.3 km/h 9.7 km/h 88% 0 mm 0 W/m2
19:09 6.8 °C 5 °C 1000.6 hPa West 4.3 km/h 8 km/h 88% 0 mm 0 W/m2
19:14 6.8 °C 5 °C 1000.6 hPa West 3.9 km/h 11.3 km/h 88% 0 mm 0 W/m2
19:19 6.8 °C 5 °C 1000.6 hPa West 3.9 km/h 11.3 km/h 88% 0 mm 0 W/m2
19:24 6.8 °C 5 °C 1000.6 hPa West 3.2 km/h 6.4 km/h 88% 0 mm 0 W/m2
19:29 6.8 °C 5.1 °C 1000.6 hPa West 4.8 km/h 8 km/h 88.4% 0 mm 0 W/m2
19:34 6.8 °C 5.1 °C 1000.9 hPa West 1.9 km/h 8 km/h 89% 0 mm 0 W/m2
19:39 6.8 °C 5.1 °C 1000.9 hPa West 1.3 km/h 6.4 km/h 89% 0 mm 0 W/m2
19:44 6.7 °C 5 °C 1000.9 hPa West 0.5 km/h 3.2 km/h 89% 0 mm 0 W/m2
19:49 6.7 °C 5 °C 1000.9 hPa West 1.9 km/h 6.4 km/h 89% 0 mm 0 W/m2
19:54 6.7 °C 5 °C 1000.9 hPa West 1.3 km/h 6.4 km/h 89% 0 mm 0 W/m2
19:59 6.7 °C 5 °C 1001.2 hPa West 2.9 km/h 8 km/h 89% 0 mm 0 W/m2
20:04 6.8 °C 5.2 °C 1001.2 hPa West 4.5 km/h 9.7 km/h 89% 0 mm 0 W/m2
20:09 6.9 °C 5.2 °C 1001.2 hPa West 2.7 km/h 8 km/h 89% 0 mm 0 W/m2
20:14 6.9 °C 5.2 °C 1001.2 hPa West 2.3 km/h 8 km/h 89% 0 mm 0 W/m2
20:19 6.9 °C 5.3 °C 1001.2 hPa West 3.5 km/h 8 km/h 89% 0 mm 0 W/m2
20:24 7 °C 5.3 °C 1001.2 hPa West 3.9 km/h 8 km/h 89% 0 mm 0 W/m2
20:29 7.1 °C 5.3 °C 1001.2 hPa WNW 5.3 km/h 12.9 km/h 89% 0 mm 0 W/m2
20:34 7.1 °C 5.3 °C 1001.2 hPa WNW 4.3 km/h 11.3 km/h 88.8% 0 mm 0 W/m2
20:39 7.1 °C 5.2 °C 1001.2 hPa WNW 4.8 km/h 9.7 km/h 88% 0 mm 0 W/m2
20:44 7 °C 5.1 °C 1001.2 hPa WNW 2.7 km/h 9.7 km/h 88% 0 mm 0 W/m2
20:49 6.9 °C 5.1 °C 1001.2 hPa WNW 6.8 km/h 12.9 km/h 88% 0 mm 0 W/m2
20:54 6.9 °C 5.1 °C 1001.6 hPa WNW 5.8 km/h 12.9 km/h 88% 0 mm 0 W/m2
20:59 6.9 °C 5.1 °C 1001.6 hPa WNW 6.1 km/h 14.5 km/h 88% 0 mm 0 W/m2
21:04 6.9 °C 5.1 °C 1001.6 hPa WNW 4.7 km/h 14.5 km/h 88% 0 mm 0 W/m2
21:09 6.8 °C 5 °C 1001.6 hPa WNW 4.2 km/h 9.7 km/h 88% 0 mm 0 W/m2
21:14 6.8 °C 5 °C 1001.6 hPa WNW 5.5 km/h 9.7 km/h 88% 0 mm 0 W/m2
21:19 6.9 °C 5.1 °C 1001.6 hPa WNW 6 km/h 12.9 km/h 88% 0 mm 0 W/m2
21:24 6.9 °C 5.1 °C 1001.9 hPa WNW 5.8 km/h 12.9 km/h 88% 0 mm 0 W/m2
21:29 6.9 °C 5.1 °C 1001.9 hPa WNW 4.8 km/h 9.7 km/h 88% 0 mm 0 W/m2
21:34 6.9 °C 5.1 °C 1001.9 hPa WNW 4 km/h 9.7 km/h 88% 0 mm 0 W/m2
21:39 6.9 °C 5.1 °C 1001.9 hPa WNW 6.1 km/h 12.9 km/h 88% 0 mm 0 W/m2
21:44 7.1 °C 5.2 °C 1001.9 hPa West 8.4 km/h 14.5 km/h 88% 0 mm 0 W/m2
21:49 7.1 °C 5.2 °C 1001.9 hPa WNW 6.4 km/h 12.9 km/h 88% 0 mm 0 W/m2
21:54 7.1 °C 5.2 °C 1001.9 hPa WNW 6.8 km/h 12.9 km/h 88% 0 mm 0 W/m2
21:59 7.1 °C 5.2 °C 1001.9 hPa WNW 7.1 km/h 12.9 km/h 88% 0 mm 0 W/m2
22:04 7.1 °C 5.2 °C 1001.9 hPa WNW 7.9 km/h 14.5 km/h 88% 0 mm 0 W/m2
22:09 7.1 °C 5.2 °C 1001.9 hPa WNW 6.9 km/h 14.5 km/h 88% 0 mm 0 W/m2
22:14 7.1 °C 5.2 °C 1001.9 hPa WNW 6 km/h 12.9 km/h 88% 0 mm 0 W/m2
22:19 7.1 °C 5.2 °C 1001.9 hPa WNW 6.3 km/h 11.3 km/h 88% 0 mm 0 W/m2
22:24 7.1 °C 5.2 °C 1001.9 hPa WNW 6.3 km/h 11.3 km/h 88% 0 mm 0 W/m2
22:29 7.1 °C 5.2 °C 1001.9 hPa WNW 8.4 km/h 12.9 km/h 88% 0 mm 0 W/m2
22:34 7.1 °C 5.2 °C 1002.3 hPa WNW 8 km/h 16.1 km/h 88% 0 mm 0 W/m2
22:39 7 °C 5.2 °C 1001.9 hPa NW 6.3 km/h 16.1 km/h 88% 0 mm 0 W/m2
22:44 6.9 °C 5.1 °C 1001.9 hPa NW 7.1 km/h 16.1 km/h 88% 0 mm 0 W/m2
22:49 6.8 °C 5.1 °C 1002.3 hPa WNW 7.6 km/h 14.5 km/h 88% 0 mm 0 W/m2
22:54 6.8 °C 5 °C 1002.3 hPa WNW 8.5 km/h 14.5 km/h 88% 0 mm 0 W/m2
22:59 6.7 °C 4.9 °C 1002.3 hPa WNW 6 km/h 11.3 km/h 88% 0 mm 0 W/m2
23:04 6.6 °C 4.8 °C 1002.3 hPa WNW 6.4 km/h 9.7 km/h 88% 0 mm 0 W/m2
23:09 6.6 °C 4.9 °C 1002.3 hPa WNW 8 km/h 16.1 km/h 89% 0 mm 0 W/m2
23:14 6.6 °C 4.9 °C 1002.3 hPa WNW 9.2 km/h 19.3 km/h 89% 0 mm 0 W/m2
23:19 6.6 °C 4.9 °C 1002.3 hPa WNW 9 km/h 17.7 km/h 89% 0 mm 0 W/m2
23:24 6.6 °C 4.8 °C 1002.6 hPa WNW 6.9 km/h 14.5 km/h 89% 0 mm 0 W/m2
23:29 6.4 °C 4.7 °C 1002.6 hPa WNW 8.5 km/h 14.5 km/h 89% 0 mm 0 W/m2
23:34 6.4 °C 4.7 °C 1002.6 hPa WNW 7.2 km/h 12.9 km/h 89% 0 mm 0 W/m2
23:39 6.3 °C 4.6 °C 1002.6 hPa WNW 7.9 km/h 12.9 km/h 89% 0 mm 0 W/m2
23:44 6.2 °C 4.4 °C 1002.6 hPa WNW 8.2 km/h 14.5 km/h 89% 0 mm 0 W/m2
23:49 6.2 °C 4.5 °C 1002.6 hPa NW 6.4 km/h 14.5 km/h 89% 0 mm 0 W/m2
23:54 6.2 °C 4.5 °C 1002.6 hPa WNW 6.6 km/h 12.9 km/h 89% 0 mm 0 W/m2
23:59 6.2 °C 4.5 °C 1002.6 hPa WNW 6.6 km/h 12.9 km/h 89% 0 mm 0 W/m2
Bath Spa Weather
Compliments of Weather Underground - 2 mb